Time;durP1;ratioP1;P1;durP2;ratioP2;P2;SDS_P1;SDS_P2;PMS_P1;PMS_P2;Temp;Humidity;BMP_temperature;BMP_pressure;BME280_temperature;BME280_humidity;BME280_pressure;Samples;Min_cycle;Max_cycle;Signal;HPM_P1;HPM_P2
2021/09/03 00:02:10;;;;;;;797.73;544.63;;;;;;;15.41;66.19;100964.94;5088991;28;20437;-66
2021/09/03 00:04:39;;;;;;;834.53;591.47;;;;;;;15.41;65.55;100958.69;5089523;28;20474;-66
2021/09/03 00:07:07;;;;;;;800.07;542.53;;;;;;;15.41;65.37;100959.53;5089719;28;20438;-66
2021/09/03 00:09:35;;;;;;;838.73;595.10;;;;;;;15.38;65.54;100958.94;5089235;28;20466;-67
2021/09/03 00:12:08;;;;;;;1110.17;708.37;;;;;;;15.36;65.30;100950.09;5089991;28;20470;-66
2021/09/03 00:14:36;;;;;;;941.30;669.60;;;;;;;15.33;65.22;100945.81;5089490;28;20460;-66
2021/09/03 00:17:05;;;;;;;847.57;582.07;;;;;;;15.34;65.71;100952.94;5089506;28;20436;-66
2021/09/03 00:19:33;;;;;;;842.00;560.07;;;;;;;15.36;65.17;100944.69;5087070;28;20487;-66
2021/09/03 00:22:01;;;;;;;832.87;566.67;;;;;;;15.35;64.96;100938.41;5088384;28;20473;-66
2021/09/03 00:24:30;;;;;;;879.30;622.90;;;;;;;15.42;64.92;100949.56;5089030;28;20474;-66
2021/09/03 00:26:58;;;;;;;858.37;601.87;;;;;;;15.43;64.08;100952.13;5089143;28;20444;-67
2021/09/03 00:29:27;;;;;;;781.33;524.77;;;;;;;15.41;64.35;100946.00;5089220;28;20465;-66
2021/09/03 00:31:55;;;;;;;822.03;575.73;;;;;;;15.41;63.78;100951.41;5074961;28;20442;-67
2021/09/03 00:34:24;;;;;;;797.03;529.70;;;;;;;15.43;63.53;100954.00;5088355;28;20978;-67
2021/09/03 00:36:52;;;;;;;877.93;594.10;;;;;;;15.45;63.48;100954.72;5089457;28;21070;-67
2021/09/03 00:39:20;;;;;;;820.43;541.53;;;;;;;15.34;65.50;100939.41;5089637;28;20433;-67
2021/09/03 00:41:48;;;;;;;991.17;719.83;;;;;;;15.42;64.76;100945.00;5089245;28;20439;-67
2021/09/03 00:44:16;;;;;;;914.30;652.40;;;;;;;15.41;63.89;100947.84;5089389;28;20444;-67
2021/09/03 00:46:46;;;;;;;924.27;655.50;;;;;;;15.36;65.22;100948.25;5091620;28;20445;-66
2021/09/03 00:49:14;;;;;;;841.63;579.93;;;;;;;15.30;65.54;100937.06;5093370;28;20468;-67
2021/09/03 00:51:42;;;;;;;882.57;604.23;;;;;;;15.33;65.18;100944.94;5091859;28;20682;-67
2021/09/03 00:54:10;;;;;;;916.10;671.60;;;;;;;15.32;65.07;100940.53;5092553;28;20442;-67
2021/09/03 00:56:39;;;;;;;865.07;618.27;;;;;;;15.25;64.86;100936.59;5093016;28;20441;-66
2021/09/03 00:59:07;;;;;;;870.77;642.20;;;;;;;15.15;65.38;100931.97;5078883;28;20428;-67
2021/09/03 01:01:35;;;;;;;846.40;558.20;;;;;;;15.09;66.70;100935.19;5073611;28;20446;-67
2021/09/03 01:04:05;;;;;;;969.63;726.03;;;;;;;15.09;65.85;100926.22;5076677;28;20925;-67
2021/09/03 01:06:34;;;;;;;908.77;647.03;;;;;;;15.06;65.59;100929.19;5089753;28;20501;-67
2021/09/03 01:09:02;;;;;;;880.77;603.27;;;;;;;15.04;65.37;100929.31;5090881;28;20497;-67
2021/09/03 01:11:30;;;;;;;859.60;566.87;;;;;;;15.01;65.23;100934.97;5077478;28;20442;-67
2021/09/03 01:13:58;;;;;;;915.00;664.57;;;;;;;14.93;66.35;100921.22;5088296;28;20460;-66
2021/09/03 01:16:27;;;;;;;954.67;705.53;;;;;;;14.88;67.86;100918.88;5080133;28;20452;-67
2021/09/03 01:18:55;;;;;;;929.23;694.43;;;;;;;14.69;66.41;100896.19;5080805;28;20446;-66
2021/09/03 01:21:24;;;;;;;943.50;708.33;;;;;;;14.35;66.55;100842.19;5073703;28;20434;-67
2021/09/03 01:23:54;;;;;;;901.07;622.93;;;;;;;14.87;66.25;100932.53;5078096;28;20500;-67
2021/09/03 01:26:22;;;;;;;939.77;690.73;;;;;;;14.82;66.25;100923.94;5085280;28;20809;-68
2021/09/03 01:28:50;;;;;;;963.73;722.40;;;;;;;14.80;66.30;100921.38;5083780;28;20477;-67
2021/09/03 01:31:19;;;;;;;963.77;701.93;;;;;;;14.75;67.37;100922.75;5073610;28;20959;-68
2021/09/03 01:33:48;;;;;;;923.87;671.47;;;;;;;14.73;67.34;100924.72;5080365;28;20431;-67
2021/09/03 01:36:16;;;;;;;945.73;688.93;;;;;;;14.69;67.48;100917.81;5072152;28;20449;-67
2021/09/03 01:38:44;;;;;;;921.67;659.23;;;;;;;14.67;67.39;100908.97;5084820;28;20446;-67
2021/09/03 01:41:13;;;;;;;792.13;508.07;;;;;;;14.68;66.98;100914.25;5075860;28;20990;-67
2021/09/03 01:43:41;;;;;;;834.37;551.47;;;;;;;14.69;67.43;100917.81;5076157;28;20443;-66
2021/09/03 01:46:09;;;;;;;937.27;681.27;;;;;;;14.50;67.05;100895.03;5081549;28;20468;-67
2021/09/03 01:48:38;;;;;;;935.70;675.30;;;;;;;14.63;69.23;100919.19;5075622;28;20553;-67
2021/09/03 01:51:06;;;;;;;821.17;552.43;;;;;;;14.60;68.33;100914.03;5071989;28;20455;-66
2021/09/03 01:53:34;;;;;;;769.37;494.90;;;;;;;14.57;67.91;100912.44;5080160;28;20433;-67
2021/09/03 01:56:02;;;;;;;807.23;530.70;;;;;;;14.57;67.81;100909.75;5071546;28;20434;-67
2021/09/03 01:58:32;;;;;;;803.90;529.23;;;;;;;14.53;67.43;100902.00;5086300;28;20958;-67
2021/09/03 02:01:00;;;;;;;768.43;494.43;;;;;;;14.53;67.41;100902.88;5091416;28;20441;-67
2021/09/03 02:03:29;;;;;;;869.13;613.23;;;;;;;14.54;67.00;100910.00;5092038;28;20439;-67
2021/09/03 02:05:58;;;;;;;914.20;666.60;;;;;;;14.55;67.70;100909.00;5091791;28;20442;-66
2021/09/03 02:08:26;;;;;;;832.80;535.23;;;;;;;14.55;66.44;100906.31;5082086;28;20537;-66
2021/09/03 02:10:54;;;;;;;828.10;536.20;;;;;;;14.51;66.89;100912.09;5080402;28;20554;-67
2021/09/03 02:13:23;;;;;;;883.97;629.07;;;;;;;14.48;67.65;100910.50;5074753;28;20877;-68
2021/09/03 02:15:52;;;;;;;822.30;575.93;;;;;;;14.48;67.81;100920.47;5088289;28;20446;-68
2021/09/03 02:18:20;;;;;;;885.43;621.87;;;;;;;14.48;66.49;100915.06;5085167;28;20457;-67
2021/09/03 02:20:48;;;;;;;793.40;484.20;;;;;;;14.48;66.53;100915.91;5090566;28;20425;-67
2021/09/03 02:23:17;;;;;;;813.80;512.73;;;;;;;14.49;66.28;100914.94;5086249;28;20466;-67
2021/09/03 02:25:45;;;;;;;844.37;571.60;;;;;;;14.46;66.22;100912.47;5087847;28;20460;-67
2021/09/03 02:28:15;;;;;;;876.93;616.43;;;;;;;14.48;65.98;100910.50;5089855;28;20445;-67
2021/09/03 02:30:43;;;;;;;891.17;601.70;;;;;;;14.48;66.00;100906.94;5080285;28;20819;-67
2021/09/03 02:33:13;;;;;;;920.33;665.87;;;;;;;14.48;66.27;100917.75;5076501;28;21018;-67
2021/09/03 02:35:42;;;;;;;921.23;692.80;;;;;;;14.43;66.15;100910.03;5070874;28;20449;-68
2021/09/03 02:38:11;;;;;;;821.93;509.93;;;;;;;14.44;66.86;100914.44;5083665;28;20446;-67
2021/09/03 02:40:39;;;;;;;910.90;648.90;;;;;;;14.41;66.53;100914.66;5069515;28;20569;-67
2021/09/03 02:43:09;;;;;;;922.33;667.17;;;;;;;14.40;66.87;100921.06;5070246;28;20497;-67
2021/09/03 02:45:40;;;;;;;850.80;554.70;;;;;;;14.39;66.20;100913.03;5081796;28;20444;-67
2021/09/03 02:48:11;;;;;;;902.63;673.73;;;;;;;14.37;66.05;100915.00;5114665;27;20454;-67
2021/09/03 02:50:45;;;;;;;813.80;551.33;;;;;;;14.33;66.92;100917.09;5071594;28;20502;-67
2021/09/03 02:53:13;;;;;;;880.13;616.53;;;;;;;14.30;66.48;100902.00;5103213;28;20445;-67
2021/09/03 02:55:41;;;;;;;898.53;635.47;;;;;;;14.30;66.02;100914.66;5084742;28;20448;-67
2021/09/03 02:58:09;;;;;;;886.10;624.40;;;;;;;14.26;66.21;100913.19;5089514;28;20806;-67
2021/09/03 03:00:37;;;;;;;856.43;572.30;;;;;;;14.21;67.21;100915.41;5084873;28;20541;-67
2021/09/03 03:03:07;;;;;;;879.47;612.30;;;;;;;14.20;65.88;100905.56;5089047;28;20472;-67
2021/09/03 03:05:36;;;;;;;784.20;488.03;;;;;;;14.15;66.52;100905.09;5090024;28;20444;-67
2021/09/03 03:08:06;;;;;;;781.67;482.97;;;;;;;14.15;66.03;100905.94;5089301;28;20481;-67
2021/09/03 03:10:34;;;;;;;723.80;409.93;;;;;;;14.10;65.83;100897.38;5084138;28;20469;-67
2021/09/03 03:13:18;;;;;;;763.47;435.53;;;;;;;14.11;66.28;100900.91;5086677;28;20439;-67
2021/09/03 03:15:47;;;;;;;871.00;576.10;;;;;;;14.12;65.76;100902.63;5090233;28;20442;-67
2021/09/03 03:18:15;;;;;;;789.77;501.47;;;;;;;14.11;66.14;100899.09;5084116;28;20446;-67
2021/09/03 03:20:45;;;;;;;825.77;483.07;;;;;;;14.10;65.32;100905.47;5083687;28;20792;-67
2021/09/03 03:23:16;;;;;;;809.87;500.03;;;;;;;14.01;65.78;100897.22;5085681;28;20449;-67
2021/09/03 03:25:44;;;;;;;790.30;452.57;;;;;;;14.03;65.97;100903.34;5090316;28;20665;-67
2021/09/03 03:28:12;;;;;;;816.60;499.17;;;;;;;13.99;66.10;100909.00;5083233;28;20453;-67
2021/09/03 03:30:41;;;;;;;831.83;460.83;;;;;;;13.98;65.47;100911.81;5086425;28;20491;-67
2021/09/03 03:33:09;;;;;;;789.27;461.77;;;;;;;13.93;66.12;100901.41;5084849;28;21046;-67
2021/09/03 03:35:37;;;;;;;849.60;581.97;;;;;;;13.84;66.78;100899.44;5090351;28;20428;-67
2021/09/03 03:38:06;;;;;;;841.53;542.00;;;;;;;13.55;66.72;100855.84;5084297;28;20451;-67
2021/09/03 03:40:37;;;;;;;864.37;571.67;;;;;;;13.73;66.81;100902.09;5084968;28;20452;-67
2021/09/03 03:43:15;;;;;;;865.63;572.50;;;;;;;13.73;67.48;100896.69;5081570;28;20963;-67
2021/09/03 03:45:44;;;;;;;806.97;529.53;;;;;;;13.75;67.43;100897.44;5079547;28;20500;-67
2021/09/03 03:48:12;;;;;;;919.77;691.30;;;;;;;13.75;66.98;100894.72;5083670;28;20475;-67
2021/09/03 03:50:40;;;;;;;899.03;613.50;;;;;;;13.70;66.61;100887.97;5073258;28;20473;-67
2021/09/03 03:53:11;;;;;;;867.07;586.20;;;;;;;13.66;66.67;100895.47;5082218;28;20794;-66
2021/09/03 03:55:40;;;;;;;810.90;536.57;;;;;;;13.62;67.03;100899.38;5082347;28;20439;-67
2021/09/03 03:58:08;;;;;;;862.27;605.77;;;;;;;13.60;67.46;100902.22;5088093;28;20441;-67
2021/09/03 04:00:36;;;;;;;836.70;547.93;;;;;;;13.62;67.17;100894.00;5084316;28;20433;-66
2021/09/03 04:03:05;;;;;;;707.57;360.13;;;;;;;13.64;66.92;100905.53;5086294;28;20447;-67
2021/09/03 04:05:33;;;;;;;887.33;611.50;;;;;;;13.58;66.60;100904.16;5094678;28;20454;-67
2021/09/03 04:08:01;;;;;;;792.30;510.03;;;;;;;13.53;67.44;100895.56;5092279;28;20489;-67
2021/09/03 04:10:30;;;;;;;771.07;487.93;;;;;;;13.56;66.75;100906.13;5099730;28;20474;-66
2021/09/03 04:12:59;;;;;;;785.20;508.80;;;;;;;13.57;67.36;100891.66;5090462;28;20431;-66
2021/09/03 04:15:27;;;;;;;853.67;549.90;;;;;;;13.55;66.73;100898.16;5088460;28;20794;-67
2021/09/03 04:17:55;;;;;;;873.90;583.97;;;;;;;13.61;66.53;100905.75;5089048;28;20484;-66
2021/09/03 04:20:24;;;;;;;747.87;434.17;;;;;;;13.62;66.80;100902.94;5082685;28;20442;-67
2021/09/03 04:22:52;;;;;;;729.33;417.90;;;;;;;13.62;66.49;100904.78;5079971;28;20436;-68
2021/09/03 04:25:20;;;;;;;805.77;638.40;;;;;;;13.66;66.00;100900.88;5081669;28;20465;-66
2021/09/03 04:27:48;;;;;;;776.47;582.43;;;;;;;13.66;65.92;100903.56;5095858;28;20454;-65
2021/09/03 04:30:18;;;;;;;743.90;500.47;;;;;;;13.71;65.97;100904.06;5082360;28;20967;-66
2021/09/03 04:32:46;;;;;;;808.03;494.03;;;;;;;13.83;66.09;100913.06;5086155;28;20443;-66
2021/09/03 04:35:14;;;;;;;665.87;400.20;;;;;;;13.86;65.65;100910.97;5082992;28;20449;-69
2021/09/03 04:37:44;;;;;;;717.63;406.87;;;;;;;13.89;65.48;100905.31;5084481;28;20453;-67
2021/09/03 04:40:14;;;;;;;747.00;442.50;;;;;;;14.01;65.59;100913.41;5082699;28;20446;-67
2021/09/03 04:42:42;;;;;;;832.73;518.27;;;;;;;14.03;64.70;100920.41;5086222;28;20436;-66
2021/09/03 04:45:11;;;;;;;816.00;471.03;;;;;;;14.11;64.86;100917.13;5080836;28;20788;-66
2021/09/03 04:47:41;;;;;;;770.07;426.20;;;;;;;14.15;64.47;100924.84;5084460;28;20953;-66
2021/09/03 04:50:12;;;;;;;839.53;529.73;;;;;;;14.20;64.20;100919.09;5082137;28;20444;-66
2021/09/03 04:52:40;;;;;;;727.87;373.03;;;;;;;14.27;63.99;100925.72;5079271;28;20968;-67
2021/09/03 04:55:09;;;;;;;733.13;382.70;;;;;;;14.29;63.39;100921.03;5076750;28;20858;-67
2021/09/03 04:57:43;;;;;;;828.43;502.57;;;;;;;14.37;64.10;100917.72;5067858;28;20913;-70
2021/09/03 05:00:13;;;;;;;719.20;368.90;;;;;;;14.43;63.75;100922.69;5082665;28;20451;-68
2021/09/03 05:02:43;;;;;;;727.77;378.20;;;;;;;14.48;63.29;100925.84;5082602;28;20455;-67
2021/09/03 05:05:12;;;;;;;686.33;331.63;;;;;;;14.50;62.56;100924.75;5081914;28;20449;-65
2021/09/03 05:07:40;;;;;;;732.20;382.80;;;;;;;14.52;63.39;100928.19;5085856;28;20451;-66
2021/09/03 05:10:10;;;;;;;768.97;432.27;;;;;;;14.59;63.12;100933.94;5081213;28;20441;-66
2021/09/03 05:12:39;;;;;;;732.03;406.90;;;;;;;14.67;63.07;100930.59;5069152;28;20454;-67
2021/09/03 05:15:10;;;;;;;705.07;358.17;;;;;;;14.69;62.21;100929.50;5083835;28;20813;-66
2021/09/03 05:17:39;;;;;;;687.77;370.97;;;;;;;14.69;62.32;100920.53;5070868;28;20443;-66
2021/09/03 05:20:11;;;;;;;756.53;421.60;;;;;;;14.72;61.67;100917.59;5073267;28;20445;-66
2021/09/03 05:22:39;;;;;;;710.87;363.23;;;;;;;14.77;61.65;100923.47;5078190;28;20457;-66
2021/09/03 05:25:09;;;;;;;795.63;537.80;;;;;;;14.82;61.84;100934.78;5086595;28;20841;-67
2021/09/03 05:27:37;;;;;;;769.17;478.43;;;;;;;14.80;61.42;100923.22;5085452;28;20440;-66
2021/09/03 05:30:07;;;;;;;849.27;561.03;;;;;;;14.81;61.48;100933.06;5087733;28;20434;-66
2021/09/03 05:32:35;;;;;;;824.40;556.40;;;;;;;14.66;60.50;100915.38;5083161;28;20815;-66
2021/09/03 05:35:04;;;;;;;758.30;465.13;;;;;;;14.89;60.54;100944.94;5078508;28;20938;-67
2021/09/03 05:37:35;;;;;;;803.10;514.57;;;;;;;14.94;60.80;100938.28;5072354;28;20433;-66
2021/09/03 05:40:05;;;;;;;800.50;504.97;;;;;;;14.99;60.38;100950.44;5087548;28;20507;-66
2021/09/03 05:42:33;;;;;;;880.33;661.20;;;;;;;15.09;61.02;100959.53;5084714;28;20431;-66
2021/09/03 05:45:01;;;;;;;831.27;587.37;;;;;;;15.20;60.61;100959.47;5088393;28;20434;-66
2021/09/03 05:47:30;;;;;;;779.13;564.93;;;;;;;15.28;60.15;100957.97;5082053;28;20934;-66
2021/09/03 05:49:58;;;;;;;746.80;605.63;;;;;;;15.37;59.45;100959.94;5083194;28;20434;-66
2021/09/03 05:52:26;;;;;;;803.17;618.40;;;;;;;15.53;59.31;100957.63;5085613;28;20473;-67
2021/09/03 05:54:56;;;;;;;864.23;681.40;;;;;;;15.74;58.82;100955.81;5078334;28;20452;-67
2021/09/03 05:57:24;;;;;;;855.00;616.33;;;;;;;15.77;58.85;100942.03;5085114;28;20818;-67
2021/09/03 05:59:52;;;;;;;853.43;564.10;;;;;;;15.98;59.49;100963.69;5076003;28;20452;-67
2021/09/03 06:02:20;;;;;;;782.13;525.83;;;;;;;16.10;57.41;100956.34;5084514;28;20826;-66
2021/09/03 06:04:48;;;;;;;792.60;499.90;;;;;;;16.33;57.48;100957.03;5079777;28;20719;-67
2021/09/03 06:07:17;;;;;;;778.23;491.57;;;;;;;16.57;58.32;100973.81;5079282;28;20432;-67
2021/09/03 06:09:45;;;;;;;766.97;473.63;;;;;;;16.73;57.37;100957.91;5080334;28;20428;-67
2021/09/03 06:12:15;;;;;;;877.47;569.50;;;;;;;17.01;56.75;100958.97;5070224;28;20464;-67
2021/09/03 06:14:43;;;;;;;828.03;506.23;;;;;;;17.20;56.04;100968.16;5069782;28;20953;-67
2021/09/03 06:17:13;;;;;;;824.60;495.77;;;;;;;17.31;55.24;100954.44;5080653;28;20436;-67
2021/09/03 06:19:41;;;;;;;782.60;426.37;;;;;;;17.48;53.81;100967.31;5080540;28;20453;-67
2021/09/03 06:22:09;;;;;;;832.57;549.50;;;;;;;17.74;54.93;100964.88;5075201;28;20431;-67
2021/09/03 06:24:37;;;;;;;799.13;519.30;;;;;;;17.55;54.55;100919.56;5076783;28;20464;-69
2021/09/03 06:27:07;;;;;;;725.70;411.23;;;;;;;17.84;54.49;100989.34;5081496;28;20442;-69
2021/09/03 06:29:38;;;;;;;844.17;549.93;;;;;;;18.09;51.24;100988.75;5082147;28;20447;-69
2021/09/03 06:32:07;;;;;;;824.37;542.47;;;;;;;18.09;52.26;100990.59;5073114;28;20468;-69
2021/09/03 06:34:37;;;;;;;807.50;511.43;;;;;;;17.96;51.43;100996.31;5082058;28;20440;-69
2021/09/03 06:37:06;;;;;;;862.27;558.10;;;;;;;17.95;52.55;100994.63;5075183;28;20836;-69
2021/09/03 06:39:34;;;;;;;811.00;514.43;;;;;;;17.86;51.45;100941.16;5087308;28;20446;-69
2021/09/03 06:42:04;;;;;;;805.87;536.73;;;;;;;18.26;52.31;100987.97;5073260;28;20435;-69
2021/09/03 06:44:32;;;;;;;887.37;609.70;;;;;;;18.37;49.97;100986.06;5070492;28;20439;-69
2021/09/03 06:47:02;;;;;;;751.73;446.70;;;;;;;18.41;50.98;100998.38;5083684;28;20802;-69
2021/09/03 06:49:31;;;;;;;739.60;446.40;;;;;;;18.57;49.73;101006.75;5076205;28;20201;-69
2021/09/03 06:51:59;;;;;;;767.17;497.30;;;;;;;18.28;49.54;101015.00;5075290;28;20279;-69
2021/09/03 06:54:27;;;;;;;754.73;472.53;;;;;;;18.32;49.71;101016.41;5085394;28;20442;-69
2021/09/03 06:56:55;;;;;;;763.77;490.83;;;;;;;18.48;50.25;101010.38;5087388;28;20209;-69
2021/09/03 06:59:23;;;;;;;844.33;491.77;;;;;;;18.41;49.09;101020.16;5090004;28;20924;-69
2021/09/03 07:01:52;;;;;;;820.60;523.57;;;;;;;17.96;49.89;101012.63;5090276;28;20437;-69
2021/09/03 07:04:22;;;;;;;942.97;646.80;;;;;;;18.01;50.83;101010.34;5090429;28;20466;-69
2021/09/03 07:06:50;;;;;;;947.90;651.13;;;;;;;17.91;49.94;101017.66;5090224;28;20432;-67
2021/09/03 07:09:19;;;;;;;817.23;505.90;;;;;;;17.87;49.55;101029.81;5090611;28;20796;-69
2021/09/03 07:11:47;;;;;;;795.43;513.97;;;;;;;17.78;49.84;101020.69;5076245;28;20833;-69
2021/09/03 07:14:15;;;;;;;852.17;610.73;;;;;;;17.29;49.88;101035.19;5090482;28;20952;-69
2021/09/03 07:16:43;;;;;;;834.30;636.00;;;;;;;17.22;49.98;101029.47;5089747;28;20523;-69
2021/09/03 07:19:11;;;;;;;825.03;561.83;;;;;;;17.31;50.31;101027.75;5089142;28;20960;-69
2021/09/03 07:21:42;;;;;;;911.10;649.67;;;;;;;17.40;49.73;101040.47;5089745;28;20438;-69
2021/09/03 07:24:10;;;;;;;940.87;706.90;;;;;;;17.56;49.23;101035.34;5079621;28;20472;-67
2021/09/03 07:26:38;;;;;;;918.07;697.80;;;;;;;17.86;48.47;101044.41;5084870;28;20435;-69
2021/09/03 07:29:07;;;;;;;904.20;696.63;;;;;;;17.96;47.98;101058.84;5090346;28;20816;-69
2021/09/03 07:31:36;;;;;;;905.83;679.63;;;;;;;18.07;47.00;101047.84;5089632;28;20968;-69
2021/09/03 07:34:04;;;;;;;872.50;617.13;;;;;;;17.69;46.64;101060.41;5088766;28;20876;-69
2021/09/03 07:36:32;;;;;;;890.40;628.60;;;;;;;17.63;47.30;101055.50;5089471;28;20442;-68
2021/09/03 07:39:02;;;;;;;859.03;596.73;;;;;;;17.63;48.02;101062.81;5076124;28;20454;-68
2021/09/03 07:41:30;;;;;;;817.87;520.70;;;;;;;17.63;48.27;101060.09;5089708;28;20944;-68
2021/09/03 07:43:58;;;;;;;833.00;590.17;;;;;;;17.84;48.46;101068.16;5089845;28;20435;-68
2021/09/03 07:46:26;;;;;;;832.83;629.53;;;;;;;17.95;49.01;101076.16;5089949;28;20797;-68
2021/09/03 07:48:55;;;;;;;911.67;715.67;;;;;;;17.99;47.16;101083.00;5089433;28;20525;-67
2021/09/03 07:51:23;;;;;;;886.97;684.03;;;;;;;18.05;47.09;101089.72;5089787;28;20443;-68
2021/09/03 07:53:52;;;;;;;921.93;718.73;;;;;;;18.04;45.06;101085.28;5088868;28;20473;-68
2021/09/03 07:56:21;;;;;;;872.53;655.57;;;;;;;18.16;45.52;101095.88;5089409;28;20794;-68
2021/09/03 07:58:50;;;;;;;935.03;724.47;;;;;;;18.02;44.79;101100.88;5076034;28;20447;-68
2021/09/03 08:01:18;;;;;;;1033.17;792.07;;;;;;;17.88;46.67;101104.91;5087289;28;20435;-68
2021/09/03 08:03:46;;;;;;;902.13;683.00;;;;;;;17.91;45.66;101115.47;5087972;28;20443;-68
2021/09/03 08:06:14;;;;;;;853.50;603.07;;;;;;;18.07;45.33;101115.78;5089221;28;20438;-68
2021/09/03 08:08:42;;;;;;;952.17;692.93;;;;;;;18.25;46.13;101118.63;5089315;28;20441;-68
2021/09/03 08:11:10;;;;;;;888.80;638.37;;;;;;;17.93;44.93;101089.03;5089478;28;20986;-68
2021/09/03 08:13:40;;;;;;;841.60;602.57;;;;;;;17.92;45.85;101115.34;5089119;28;20829;-68
2021/09/03 08:16:09;;;;;;;781.77;529.73;;;;;;;17.81;44.92;101128.22;5089151;28;20437;-68
2021/09/03 08:18:37;;;;;;;776.07;522.77;;;;;;;18.02;44.82;101123.50;5088033;28;20447;-68
2021/09/03 08:21:05;;;;;;;758.67;502.47;;;;;;;18.21;46.33;101117.19;5089360;28;20458;-68
2021/09/03 08:23:35;;;;;;;728.67;445.83;;;;;;;18.40;45.75;101121.78;5087419;28;20974;-68
2021/09/03 08:26:03;;;;;;;719.17;425.47;;;;;;;18.39;45.13;101134.53;5077198;28;20438;-69
2021/09/03 08:28:31;;;;;;;736.87;460.83;;;;;;;18.23;43.43;101096.16;5086641;28;20435;-69
2021/09/03 08:31:01;;;;;;;727.10;435.40;;;;;;;18.43;44.33;101133.22;5089318;28;20446;-70
2021/09/03 08:33:29;;;;;;;749.67;490.63;;;;;;;18.48;45.84;101119.19;5089144;28;20216;-69
2021/09/03 08:35:57;;;;;;;763.73;506.00;;;;;;;18.18;43.97;101129.22;5089330;28;20435;-69
2021/09/03 08:38:25;;;;;;;778.90;505.10;;;;;;;18.03;44.79;101132.50;5087699;28;20439;-69
2021/09/03 08:40:56;;;;;;;756.87;485.60;;;;;;;18.20;43.41;101132.66;5088721;28;20823;-69
2021/09/03 08:43:25;;;;;;;757.20;487.17;;;;;;;18.21;43.00;101144.38;5089225;28;20438;-69
2021/09/03 08:45:53;;;;;;;751.73;476.30;;;;;;;18.29;44.48;101141.81;5088901;28;20987;-69
2021/09/03 08:48:24;;;;;;;741.47;467.10;;;;;;;18.57;43.93;101135.47;5088983;28;20470;-69
2021/09/03 08:50:55;;;;;;;747.07;480.57;;;;;;;18.54;43.38;101146.66;5068599;28;20428;-69
2021/09/03 08:53:24;;;;;;;730.63;448.77;;;;;;;18.60;41.96;101145.22;5081469;28;21011;-69
2021/09/03 08:55:54;;;;;;;724.83;442.13;;;;;;;18.17;42.81;101094.03;5087278;28;20458;-69
2021/09/03 08:58:23;;;;;;;747.43;479.23;;;;;;;18.64;42.97;101133.06;5088712;28;20438;-69
2021/09/03 09:01:08;;;;;;;764.67;504.77;;;;;;;18.86;43.55;101140.88;5088246;28;20827;-68
2021/09/03 09:03:40;;;;;;;747.73;471.07;;;;;;;18.79;42.54;101147.06;5088563;28;20431;-69
2021/09/03 09:06:10;;;;;;;780.87;521.57;;;;;;;18.65;42.31;101145.66;5088687;28;20500;-68
2021/09/03 09:08:39;;;;;;;761.37;504.07;;;;;;;18.60;42.64;101120.72;5092493;28;20807;-69
2021/09/03 09:11:12;;;;;;;764.13;496.40;;;;;;;18.74;42.88;101152.97;5092551;28;20196;-69
2021/09/03 09:13:42;;;;;;;839.80;582.47;;;;;;;18.87;41.71;101153.47;5092400;28;20227;-69
2021/09/03 09:16:12;;;;;;;815.87;570.50;;;;;;;18.95;40.56;101158.19;5091210;28;20441;-69
2021/09/03 09:18:44;;;;;;;767.13;519.00;;;;;;;18.58;40.86;101158.09;5092116;28;20461;-69
2021/09/03 09:21:22;;;;;;;777.33;544.47;;;;;;;18.51;41.45;101156.97;5092968;28;20610;-69
2021/09/03 09:23:53;;;;;;;776.83;538.97;;;;;;;18.44;42.17;101156.69;5092001;28;20239;-69
2021/09/03 09:26:24;;;;;;;771.47;533.00;;;;;;;18.32;41.27;101157.84;5092419;28;20979;-69
2021/09/03 09:28:53;;;;;;;774.50;523.03;;;;;;;17.85;40.57;101164.97;5092014;28;20543;-69
2021/09/03 09:31:36;;;;;;;789.77;539.63;;;;;;;17.78;41.77;101158.38;5092334;28;20674;-69
2021/09/03 09:34:17;;;;;;;779.90;520.20;;;;;;;18.09;41.24;101151.00;5079918;28;20472;-69
2021/09/03 09:36:47;;;;;;;846.13;591.37;;;;;;;18.13;42.70;101161.44;5091820;28;20441;-68
2021/09/03 09:39:16;;;;;;;967.27;728.43;;;;;;;18.00;43.06;101163.53;5092195;28;20438;-69
2021/09/03 09:41:44;;;;;;;971.33;767.13;;;;;;;18.05;42.30;101163.13;5077869;28;21045;-69
2021/09/03 09:44:13;;;;;;;884.07;655.63;;;;;;;17.74;42.18;101159.63;5092025;28;20427;-69
2021/09/03 09:46:41;;;;;;;898.53;638.40;;;;;;;17.54;42.08;101164.16;5091890;28;20439;-69
2021/09/03 09:49:13;;;;;;;894.20;653.63;;;;;;;17.78;44.54;101158.38;5090453;28;20450;-69
2021/09/03 09:51:45;;;;;;;946.40;691.67;;;;;;;17.99;43.11;101167.25;5091532;28;20447;-69
2021/09/03 09:54:16;;;;;;;994.97;757.33;;;;;;;18.38;43.69;101157.28;5091605;28;20470;-69
2021/09/03 09:56:47;;;;;;;919.87;685.13;;;;;;;18.41;43.46;101161.56;5091601;28;20530;-69
2021/09/03 09:59:16;;;;;;;794.97;572.50;;;;;;;18.70;43.40;101162.44;5090690;28;20762;-69
2021/09/03 10:01:46;;;;;;;767.37;502.93;;;;;;;18.89;43.34;101165.09;5078926;28;20943;-69
2021/09/03 10:04:18;;;;;;;775.67;522.40;;;;;;;18.76;41.41;101167.28;5091572;28;20513;-69
2021/09/03 10:06:49;;;;;;;922.47;659.40;;;;;;;18.89;42.02;101167.81;5091503;28;20435;-69
2021/09/03 10:09:19;;;;;;;879.63;640.83;;;;;;;19.18;42.77;101178.59;5091551;28;20443;-69
2021/09/03 10:11:49;;;;;;;805.00;563.43;;;;;;;19.25;42.04;101184.31;5077817;28;20427;-69
2021/09/03 10:14:24;;;;;;;892.07;662.53;;;;;;;19.12;41.50;101145.66;5090195;28;20474;-69
2021/09/03 10:16:54;;;;;;;954.60;704.97;;;;;;;19.26;41.83;101179.72;5076922;28;20423;-69
2021/09/03 10:19:25;;;;;;;976.10;757.13;;;;;;;19.23;42.54;101180.88;5091321;28;20810;-69
2021/09/03 10:22:01;;;;;;;845.53;601.17;;;;;;;19.35;41.41;101173.41;5091040;28;20443;-69
2021/09/03 10:24:29;;;;;;;965.67;684.23;;;;;;;19.21;41.60;101182.88;5091229;28;20764;-69
2021/09/03 10:26:59;;;;;;;907.77;626.17;;;;;;;18.81;41.56;101181.28;5091270;28;20438;-69
2021/09/03 10:29:30;;;;;;;910.33;669.53;;;;;;;18.58;42.06;101186.16;5091039;28;20522;-69
2021/09/03 10:32:17;;;;;;;950.97;684.70;;;;;;;18.81;42.75;101196.78;5086664;28;20433;-69
2021/09/03 10:34:50;;;;;;;781.17;517.53;;;;;;;18.73;43.00;101197.50;5079834;28;20848;-69
2021/09/03 10:37:27;;;;;;;798.73;537.70;;;;;;;19.14;42.11;101189.94;5091306;28;20799;-69
2021/09/03 10:39:58;;;;;;;849.87;586.53;;;;;;;19.20;40.96;101194.78;5090808;28;20438;-68
2021/09/03 10:42:45;;;;;;;805.23;543.30;;;;;;;18.63;39.04;101176.72;5077504;28;20430;-69
2021/09/03 10:45:21;;;;;;;768.37;513.13;;;;;;;18.96;40.12;101186.25;5090608;28;20441;-69
2021/09/03 10:47:58;;;;;;;767.90;513.27;;;;;;;19.33;39.40;101192.63;5090648;28;20453;-69
2021/09/03 10:50:30;;;;;;;864.73;628.87;;;;;;;19.61;38.56;101184.50;5090864;28;20271;-69
2021/09/03 10:53:28;;;;;;;904.03;659.20;;;;;;;19.83;38.08;101189.50;5090927;28;20561;-69
2021/09/03 10:56:07;;;;;;;811.90;573.80;;;;;;;20.16;38.25;101193.44;5090486;28;20941;-69
2021/09/03 10:58:44;;;;;;;785.30;545.80;;;;;;;20.06;37.38;101192.66;5089976;28;20435;-68
2021/09/03 11:01:52;;;;;;;804.73;570.33;;;;;;;19.85;38.05;101185.59;5090531;28;20582;-67
2021/09/03 11:04:24;;;;;;;773.13;521.07;;;;;;;20.10;39.99;101197.66;5090463;28;20299;-68
2021/09/03 11:07:08;;;;;;;771.50;520.97;;;;;;;19.80;38.28;101200.72;5090256;28;20304;-69